Terminal Aerodrome Forecast
Issued by NWS Buffalo, NY

Home | Current Version | Previous Version | Text Only | Print | Product List | Glossary On
Versions: 1 2 3 4 5 6 7 8 9 10 11 12 13 14 15 16 17 18 19 20 21 22 23 24 25 26 27 28 29 30
000
FTUS41 KBUF 310500
TAFBUF
TAF
KBUF 310520Z 3106/0106 25008KT P6SM -SN OVC025
     FM310900 VRB03KT P6SM BKN025
     FM311000 VRB03KT P6SM BKN035
     FM311200 VRB03KT P6SM BKN080
     FM311400 23004KT P6SM BKN090
     FM311700 24010KT P6SM BKN080
     FM010000 24012KT P6SM BKN020
     FM010200 25011KT P6SM VCSH BKN045
     FM010500 26010KT P6SM BKN030=

USA.gov is the U.S. government's official web portal to all federal, state and local government web resources and services.